AirNav   Pilot Hours Calculator
 
 1023 users online  

19MO North Patrol Div Station Heliport
Kansas City, Missouri, USA

GOING TO KANSAS CITY?


FAA INFORMATION EFFECTIVE 18 JULY 2019

Location

FAA Identifier: 19MO
Lat/Long: 39-14-40.0070N / 094-35-20.8400W
39-14.666783N / 094-35.347333W
39.2444464 / -94.5891222
(estimated)
Elevation: 955 ft. / 291 m (estimated)
Variation: 05E (1985)
Time zone: UTC -5 (UTC -6 during Standard Time)
Zip code: 64118

Heliport Operations

Heliport use: Private use. Permission required prior to landing
Activation date: 07/1977
Control tower: no
ARTCC: KANSAS CITY CENTER
FSS: COLUMBIA FLIGHT SERVICE STATION
Attendance: UNATNDD
Wind indicator: yes
Segmented circle: no

Heliport Communications

WX ASOS at MCI (7 nm NW): PHONE 816-329-2808
WX ASOS at MKC (7 nm S): PHONE 816-329-2843
WX AWOS-3 at GPH (14 nm E): 120.275 (816-407-3399)
WX ASOS at LXT (20 nm SE): 124.175 (816-347-9807)

Nearby radio navigation aids

VOR radial/distance  VOR name  Freq  Var
MCIr105/7.3KANSAS CITY VORTAC113.2505E
ANXr286/23.2NAPOLEON VORTAC114.0007E

Heliport Services

Runway Information

Helipad H1

Dimensions: 15 x 15 ft. / 5 x 5 m
Surface: concrete
Latitude: 39-14.666833N
Longitude: 094-35.347333W
Elevation: 955.0 ft.
Traffic pattern: leftleft

Heliport Ownership and Management from official FAA records

Ownership: Publicly-owned
Owner: KANSAS CITY MO POLICE DEP
1125 LOCUST
KANSAS CITY, MO 64106
Phone 816-234-5540
Manager: SHAWN NICHOLS
4601 EASTERN
KANSAS CITY, MO 64106
Phone 816-929-2700

Heliport Operational Statistics

Aircraft based on the field: 3
Helicopters: 3
    

Additional Remarks

A52-H1 +170 FT TWR 80 FT W; 30 FT FLAG POLE 125 FT SW; 45 FT PLINES RUNNING E/W 250 FT N OF HELIPAD.
OWNER DESIRES ARPT NOT BE CHARTED.
FOR CD CTC KANSAS CITY APCH AT 816-329-2710.

Instrument Procedures

There are no published instrument procedures at 19MO.

Some nearby airports with instrument procedures:

KMCI - Kansas City International Airport (7 nm NW)
KMKC - Charles B Wheeler Downtown Airport (7 nm S)
KGPH - Midwest National Air Center Airport (14 nm E)
KFLV - Sherman Army Airfield (17 nm NW)
3EX - Excelsior Springs Memorial Airport (19 nm E)
KLXT - Lee's Summit Municipal Airport (20 nm SE)
 
Loc | Ops | Rwys | IFR | FBO | Links
Com | Nav | Svcs | Stats | Notes

Kansas City Aviation Department
 
Area around 19MO (North Patrol Div Station Heliport)
 
Road maps at: MapQuest Bing Google
 
Aerial photo
No photo
 
Sectional chart

 
Airport distance calculator
Flying to North Patrol Div Station Heliport? Find the distance to fly.

From to 19MO

Sunrise and sunset
Times for 20-Jul-2019
 Local
(UTC-5)
 Zulu
(UTC)
Morning civil twilight05:3810:38
Sunrise06:0911:09
Sunset20:4001:40
Evening civil twilight21:1102:11

Current date and time
Zulu (UTC)  20-Jul-2019 23:13:29
Local (UTC-5)  20-Jul-2019 18:13:29
 
METAR
KMCI 
7nm NW 
202253Z 21008KT 10SM CLR 35/25 A2981 RMK AO2 SLP080 T03500250
KMKC 
8nm S 
202254Z 18012KT 10SM CLR 36/22 A2978 RMK AO2 SLP073 T03610222
KGPH 
14nm E 
202055Z AUTO 17009KT CLR 35/22 A2981 RMK AO2 PWINO
KLXT 
20nm SE 
202253Z AUTO 19016G22KT 10SM CLR 35/24 A2982 RMK AO2 RAE53 SLP083 P0000 T03500239
TAF
KMCI 
7nm NW 
201729Z 2018/2118 19012G22KT P6SM SKC FM210100 17010KT P6SM SKC FM211400 18012G22KT P6SM SCT200
KMKC 
8nm S 
201729Z 2018/2118 19012G22KT P6SM SKC FM210100 17010KT P6SM SKC FM211400 20012G22KT P6SM SCT200
NOTAMs
Click for the latest NOTAMs
NOTAMs are issued by the DoD/FAA and will open in a separate window not controlled by AirNav.

 

 
 

Would you like to see your business listed on this page?

 If your business provides an interesting product or service to pilots, flight crews, aircraft, or users of the North Patrol Div Station Heliport, you should consider listing it here.  To start the listing process, click on the button below
 
Add a business
 

Other Pages about North Patrol Div Station Heliport

Update a link
 
Copyright © AirNav, LLC. All rights reserved. Privacy Policy  Contact